Utopia Ace — H8SX — position and weather

sailwx.info

Track history (hours):
 
Tides and Currents Weather Stations Pressure Air Temp Water Temp Dewpoint Dewpoint Depression Visibility Wind Speed Wind Dir Waves Ship Positions

Utopia Ace

Last reported at 2018-Apr-20 22:15 UTC. Time now 2018-Apr-23 07:47 UTC.
Position N 26°43' W 076°31'.

Length 200 m; draft 9 m.

Type: Cargo ship. MMSI: 354487000.

Date/timePositionNaut miles runAvg speedWind from/ knotsBaromVisibWave heightAir tempDewpointWater temp
2018-Apr-20 22:15N 26°43' W 076°31'416.3
2018-Apr-20 22:00N 26°45' W 076°35'816.3
2018-Apr-20 21:30N 26°50' W 076°42'816.1
2018-Apr-20 21:00N 26°54' W 076°50'816.3
2018-Apr-20 20:31N 26°58' W 076°57'1217.7
2018-Apr-20 19:49N 27°05' W 077°09'263 7.6
2018-Apr-19 09:17N 30°19' W 080°31'517.6
2018-Apr-19 08:59N 30°14' W 080°33'817.5
2018-Apr-19 08:30N 30°06' W 080°34'4616.9
2018-Apr-19 05:45N 29°21' W 080°20'417.7
2018-Apr-19 05:30N 29°17' W 080°17'18618.6
2018-Apr-18 19:30N 26°16' W 079°29'1219.4
2018-Apr-18 18:54N 26°04' W 079°30'818.8
2018-Apr-18 18:30N 25°57' W 079°32'1019.3
2018-Apr-18 18:00N 25°48' W 079°34'919.1
2018-Apr-18 17:30N 25°38' W 079°36'52915.8
2018-Apr-17 07:59N 22°54' W 088°47'  
2018-Apr-13 09:10N 19°33' W 096°05'419.5
2018-Apr-13 08:57N 19°29' W 096°03'919.4
2018-Apr-13 08:30N 19°22' W 095°59'816.3
2018-Apr-13 08:00N 19°14' W 095°60'611.4
2018-Apr-13 07:30N 19°12' W 096°06'3 5.1
2018-Apr-13 07:00N 19°13' W 096°08'0 0.0
2018-Apr-13 06:30N 19°13' W 096°08'0 0.0
2018-Apr-13 05:57N 19°13' W 096°08'0 0.0
2018-Apr-13 05:30N 19°13' W 096°08'0 0.0
2018-Apr-13 05:00N 19°13' W 096°08'0 0.0
2018-Apr-13 04:27N 19°13' W 096°08'0 0.0
2018-Apr-13 04:00N 19°13' W 096°08'0 0.0
2018-Apr-13 03:30N 19°13' W 096°08'0 0.0
2018-Apr-13 03:00N 19°13' W 096°08'0 0.0
2018-Apr-13 02:30N 19°13' W 096°08'0 0.0
2018-Apr-13 02:00N 19°13' W 096°08'0 0.0
2018-Apr-13 01:30N 19°13' W 096°08'0 0.0
2018-Apr-13 01:00N 19°13' W 096°08'0 0.0
2018-Apr-13 00:30N 19°13' W 096°08'0 0.0
2018-Apr-13 00:00N 19°13' W 096°08'0 0.0
2018-Apr-12 23:30N 19°13' W 096°08'0 0.0
2018-Apr-12 23:00N 19°13' W 096°08'0 0.0
2018-Apr-12 22:30N 19°13' W 096°08'0 0.0
2018-Apr-12 22:00N 19°13' W 096°08'0 0.0
2018-Apr-12 21:30N 19°13' W 096°08'0 0.0
2018-Apr-12 21:00N 19°13' W 096°08'0 0.0
2018-Apr-12 20:30N 19°13' W 096°08'0 0.0
2018-Apr-12 20:00N 19°13' W 096°08'0 0.0
2018-Apr-12 19:30N 19°13' W 096°08'0 0.0
2018-Apr-12 19:00N 19°13' W 096°08'0 0.0
2018-Apr-12 18:30N 19°13' W 096°08'0 0.0
2018-Apr-12 18:00N 19°13' W 096°08'0 0.0
2018-Apr-12 17:30N 19°13' W 096°08'0 0.0
2018-Apr-12 17:00N 19°13' W 096°08'0 0.8
2018-Apr-12 16:31N 19°12' W 096°08'3 6.8
2018-Apr-12 16:00N 19°12' W 096°04'3 5.9
2018-Apr-12 15:31N 19°12' W 096°01'3 5.7
2018-Apr-12 15:01N 19°13' W 095°58'4 8.0
2018-Apr-12 14:30N 19°14' W 095°54'4 9.0
2018-Apr-12 14:00N 19°15' W 095°50'4 6.6
2018-Apr-12 13:25N 19°15' W 095°46'5 9.4
2018-Apr-12 12:56N 19°18' W 095°42'5 0.5
2018-Apr-12 02:43N 19°17' W 095°47'1 1.9
2018-Apr-12 02:24N 19°17' W 095°48'1 2.0
2018-Apr-12 01:45N 19°18' W 095°48'1 2.1
2018-Apr-12 01:30N 19°18' W 095°48'1 2.3
2018-Apr-12 00:57N 19°19' W 095°49'1 2.4
2018-Apr-12 00:29N 19°20' W 095°49'1 2.3
2018-Apr-11 23:58N 19°21' W 095°50'1 2.4
2018-Apr-11 23:30N 19°22' W 095°50'1 2.4
2018-Apr-11 23:00N 19°24' W 095°51'1 2.5
2018-Apr-11 22:30N 19°25' W 095°51'1 2.5
2018-Apr-11 21:59N 19°26' W 095°51'1 2.5
2018-Apr-11 21:26N 19°27' W 095°51'1 2.8
2018-Apr-11 20:56N 19°29' W 095°51'1 3.1
2018-Apr-11 20:30N 19°30' W 095°50'2 3.4
2018-Apr-11 19:58N 19°32' W 095°49'  
Track history (hours):
 
Tides and Currents Weather Stations Pressure Air Temp Water Temp Dewpoint Dewpoint Depression Visibility Wind Speed Wind Dir Waves Ship Positions

Utopia Ace

Last reported at 2018-Apr-20 22:15 UTC. Time now 2018-Apr-23 07:47 UTC.
Position N 26°43' W 076°31'.

Length 200 m; draft 9 m.

Type: Cargo ship. MMSI: 354487000.

Date/timePositionNaut miles runAvg speedWind from/ knotsBaromVisibWave heightAir tempDewpointWater temp
2018-Apr-20 22:15N 26°43' W 076°31'416.3
2018-Apr-20 22:00N 26°45' W 076°35'816.3
2018-Apr-20 21:30N 26°50' W 076°42'816.1
2018-Apr-20 21:00N 26°54' W 076°50'816.3
2018-Apr-20 20:31N 26°58' W 076°57'1217.7
2018-Apr-20 19:49N 27°05' W 077°09'263 7.6
2018-Apr-19 09:17N 30°19' W 080°31'517.6
2018-Apr-19 08:59N 30°14' W 080°33'817.5
2018-Apr-19 08:30N 30°06' W 080°34'4616.9
2018-Apr-19 05:45N 29°21' W 080°20'417.7
2018-Apr-19 05:30N 29°17' W 080°17'18618.6
2018-Apr-18 19:30N 26°16' W 079°29'1219.4
2018-Apr-18 18:54N 26°04' W 079°30'818.8
2018-Apr-18 18:30N 25°57' W 079°32'1019.3
2018-Apr-18 18:00N 25°48' W 079°34'919.1
2018-Apr-18 17:30N 25°38' W 079°36'52915.8
2018-Apr-17 07:59N 22°54' W 088°47'  
2018-Apr-13 09:10N 19°33' W 096°05'419.5
2018-Apr-13 08:57N 19°29' W 096°03'919.4
2018-Apr-13 08:30N 19°22' W 095°59'816.3
2018-Apr-13 08:00N 19°14' W 095°60'611.4
2018-Apr-13 07:30N 19°12' W 096°06'3 5.1
2018-Apr-13 07:00N 19°13' W 096°08'0 0.0
2018-Apr-13 06:30N 19°13' W 096°08'0 0.0
2018-Apr-13 05:57N 19°13' W 096°08'0 0.0
2018-Apr-13 05:30N 19°13' W 096°08'0 0.0
2018-Apr-13 05:00N 19°13' W 096°08'0 0.0
2018-Apr-13 04:27N 19°13' W 096°08'0 0.0
2018-Apr-13 04:00N 19°13' W 096°08'0 0.0
2018-Apr-13 03:30N 19°13' W 096°08'0 0.0
2018-Apr-13 03:00N 19°13' W 096°08'0 0.0
2018-Apr-13 02:30N 19°13' W 096°08'0 0.0
2018-Apr-13 02:00N 19°13' W 096°08'0 0.0
2018-Apr-13 01:30N 19°13' W 096°08'0 0.0
2018-Apr-13 01:00N 19°13' W 096°08'0 0.0
2018-Apr-13 00:30N 19°13' W 096°08'0 0.0
2018-Apr-13 00:00N 19°13' W 096°08'0 0.0
2018-Apr-12 23:30N 19°13' W 096°08'0 0.0
2018-Apr-12 23:00N 19°13' W 096°08'0 0.0
2018-Apr-12 22:30N 19°13' W 096°08'0 0.0
2018-Apr-12 22:00N 19°13' W 096°08'0 0.0
2018-Apr-12 21:30N 19°13' W 096°08'0 0.0
2018-Apr-12 21:00N 19°13' W 096°08'0 0.0
2018-Apr-12 20:30N 19°13' W 096°08'0 0.0
2018-Apr-12 20:00N 19°13' W 096°08'0 0.0
2018-Apr-12 19:30N 19°13' W 096°08'0 0.0
2018-Apr-12 19:00N 19°13' W 096°08'0 0.0
2018-Apr-12 18:30N 19°13' W 096°08'0 0.0
2018-Apr-12 18:00N 19°13' W 096°08'0 0.0
2018-Apr-12 17:30N 19°13' W 096°08'0 0.0
2018-Apr-12 17:00N 19°13' W 096°08'0 0.8
2018-Apr-12 16:31N 19°12' W 096°08'3 6.8
2018-Apr-12 16:00N 19°12' W 096°04'3 5.9
2018-Apr-12 15:31N 19°12' W 096°01'3 5.7
2018-Apr-12 15:01N 19°13' W 095°58'4 8.0
2018-Apr-12 14:30N 19°14' W 095°54'4 9.0
2018-Apr-12 14:00N 19°15' W 095°50'4 6.6
2018-Apr-12 13:25N 19°15' W 095°46'5 9.4
2018-Apr-12 12:56N 19°18' W 095°42'5 0.5
2018-Apr-12 02:43N 19°17' W 095°47'1 1.9
2018-Apr-12 02:24N 19°17' W 095°48'1 2.0
2018-Apr-12 01:45N 19°18' W 095°48'1 2.1
2018-Apr-12 01:30N 19°18' W 095°48'1 2.3
2018-Apr-12 00:57N 19°19' W 095°49'1 2.4
2018-Apr-12 00:29N 19°20' W 095°49'1 2.3
2018-Apr-11 23:58N 19°21' W 095°50'1 2.4
2018-Apr-11 23:30N 19°22' W 095°50'1 2.4
2018-Apr-11 23:00N 19°24' W 095°51'1 2.5
2018-Apr-11 22:30N 19°25' W 095°51'1 2.5
2018-Apr-11 21:59N 19°26' W 095°51'1 2.5
2018-Apr-11 21:26N 19°27' W 095°51'1 2.8
2018-Apr-11 20:56N 19°29' W 095°51'1 3.1
2018-Apr-11 20:30N 19°30' W 095°50'2 3.4
2018-Apr-11 19:58N 19°32' W 095°49'  

Dump ship's entire track history